Pagrindinis puslapis
METAR-TAF:

METAR-TAF

Oro uostai :

Quinhagak, Aliaska, Jungtinės Amerikos Valstijos

platuma: 59-45-18N, ilguma: 161-50-43W, Aukštis: 13 m

Dabartinis oras

Ataskaita buvo paskelbta 29 minutes, ne 06:56 UTC
Vėjas 4 kt iš Šiaurės
Temperatūra -23°C
Drėgmė 76%
Slėgis 1014 hPa
Matomumas: 16.1 km
Giedras dangus

METAR: PAQH 280656Z AUTO 36004KT 10SM CLR M23/M26 A2995 RMK AO2 SLP142 T12331256 FZRANO

Laikas: 22:25 (07:25 UTC)


TAF: trūkstamas

Orai ataskaitas ir orų prognozės (METAR, TAF).

turimą stotys yra geltonos ir raudonos taškus žemėlapyje.

Perkelti pele per norėdami pamatyti stoties vardą.

Tada spustelėkite, norėdami matyti oro stebėjimo ir prognozės.

Norėdami pakeisti žemėlapį: spustelėkite ant žalios mygtukų su juodo kryžiaus žemyn,; žalią mygtuką su brūkšneliu, jei norite nutolinti; arba žalių rodyklių gretimoms žemėlapius.


METAR-TAF: